createdAt,value
2023-04-07T00:03:09.019Z,24.33
2023-04-07T00:08:11.899Z,23.65
2023-04-07T00:13:14.708Z,23.15
2023-04-07T00:18:18.932Z,21.55
2023-04-07T00:23:21.795Z,23.90
2023-04-07T00:28:24.490Z,26.10
2023-04-07T00:33:28.772Z,23.15
2023-04-07T00:38:31.750Z,21.33
2023-04-07T00:43:34.752Z,22.88
2023-04-07T00:48:39.364Z,20.90
2023-04-07T00:53:42.816Z,21.48
2023-04-07T00:58:46.001Z,19.33
2023-04-07T01:03:58.020Z,20.75
2023-04-07T01:09:06.153Z,21.13
2023-04-07T01:14:11.242Z,18.13
2023-04-07T01:19:35.092Z,19.25
2023-04-07T01:24:58.719Z,20.80
2023-04-07T01:30:04.870Z,21.10
2023-04-07T01:35:11.435Z,17.50
2023-04-07T01:40:15.009Z,19.03
2023-04-07T01:45:19.681Z,17.98
2023-04-07T01:50:23.060Z,15.27
2023-04-07T01:55:26.594Z,21.75
2023-04-07T02:00:40.518Z,21.95
2023-04-07T02:05:49.450Z,17.88
2023-04-07T02:10:53.879Z,18.75
2023-04-07T02:15:59.050Z,21.63
2023-04-07T02:21:04.943Z,16.90
2023-04-07T02:26:07.899Z,18.42
2023-04-07T02:31:13.746Z,23.88
2023-04-07T02:36:16.648Z,20.83
2023-04-07T02:41:19.493Z,27.20
2023-04-07T02:46:23.761Z,24.33
2023-04-07T02:51:27.616Z,27.60
2023-04-07T02:56:31.079Z,23.05
2023-04-07T03:01:36.500Z,23.95
2023-04-07T03:06:39.480Z,26.67
2023-04-07T03:11:51.164Z,24.33
2023-04-07T03:16:56.443Z,26.38
2023-04-07T03:22:00.292Z,28.52
2023-04-07T03:27:03.642Z,30.88
2023-04-07T03:32:16.705Z,32.90
2023-04-07T03:37:19.764Z,28.83
2023-04-07T03:42:22.703Z,30.00
2023-04-07T03:47:29.536Z,29.98
2023-04-07T03:52:37.674Z,33.83
2023-04-07T03:57:49.757Z,33.20
2023-04-07T04:02:54.519Z,28.63
2023-04-07T04:07:57.545Z,28.10
2023-04-07T04:13:00.992Z,31.73
2023-04-07T04:18:05.394Z,29.75
2023-04-07T04:23:09.828Z,30.75
2023-04-07T04:28:13.658Z,23.77
2023-04-07T04:33:18.782Z,23.48
2023-04-07T04:38:33.396Z,22.80
2023-04-07T04:44:02.373Z,27.48
2023-04-07T04:49:08.159Z,25.70
2023-04-07T04:54:12.259Z,31.50
2023-04-07T04:59:15.693Z,28.27
2023-04-07T05:04:33.149Z,31.65
2023-04-07T05:09:45.957Z,29.58
2023-04-07T05:14:50.500Z,24.80
2023-04-07T05:19:55.853Z,24.10
2023-04-07T05:25:10.897Z,21.27
2023-04-07T05:30:16.218Z,23.57
2023-04-07T05:35:21.497Z,20.45
2023-04-07T05:40:30.220Z,27.63
2023-04-07T05:45:36.237Z,20.58
2023-04-07T05:50:40.527Z,22.20
2023-04-07T05:55:47.565Z,22.15
2023-04-07T06:01:20.634Z,29.05
2023-04-07T06:06:26.311Z,27.08
2023-04-07T06:11:29.445Z,30.52
2023-04-07T06:16:32.258Z,31.58
2023-04-07T06:21:36.420Z,40.30
2023-04-07T06:26:41.691Z,31.92
2023-04-07T06:31:44.630Z,36.50
2023-04-07T06:36:49.781Z,30.15
2023-04-07T06:41:54.393Z,37.17
2023-04-07T06:46:57.667Z,42.20
2023-04-07T06:52:01.775Z,39.58
2023-04-07T06:57:06.686Z,37.85
2023-04-07T07:02:10.571Z,40.15
2023-04-07T07:07:15.420Z,32.20
2023-04-07T07:12:19.205Z,32.55
2023-04-07T07:17:21.966Z,27.45
2023-04-07T07:22:26.796Z,28.10
2023-04-07T07:27:29.479Z,26.23
2023-04-07T07:32:32.262Z,24.80
2023-04-07T07:37:36.529Z,23.00
2023-04-07T07:42:39.571Z,29.02
2023-04-07T07:47:42.662Z,22.75
2023-04-07T07:52:47.755Z,33.90
2023-04-07T07:57:51.333Z,22.77
2023-04-07T08:02:54.402Z,22.27
2023-04-07T08:08:03.010Z,22.35
2023-04-07T08:13:06.502Z,19.33
2023-04-07T08:18:09.310Z,24.48
2023-04-07T08:23:13.942Z,27.45
2023-04-07T08:28:16.960Z,22.35
2023-04-07T08:33:19.895Z,17.58
2023-04-07T08:38:24.700Z,20.63
2023-04-07T08:43:29.789Z,17.60
2023-04-07T08:48:34.089Z,20.90
2023-04-07T08:53:44.385Z,21.42
2023-04-07T08:58:48.926Z,22.63
2023-04-07T09:03:52.443Z,18.33
2023-04-07T09:08:56.828Z,20.23
2023-04-07T09:14:01.870Z,24.48
2023-04-07T09:19:06.752Z,18.30
2023-04-07T09:24:22.382Z,20.10
2023-04-07T09:29:26.670Z,12.90
2023-04-07T09:34:32.979Z,9.68
2023-04-07T09:39:50.552Z,7.88
2023-04-07T09:44:53.559Z,6.73
2023-04-07T09:49:59.495Z,9.80
2023-04-07T09:55:07.751Z,8.57
2023-04-07T10:00:12.307Z,8.05
2023-04-07T10:05:21.046Z,11.13
2023-04-07T10:10:26.522Z,10.80
2023-04-07T10:15:30.346Z,10.50
2023-04-07T10:20:33.465Z,4.72
2023-04-07T10:25:40.237Z,10.93
2023-04-07T10:30:45.128Z,7.45
2023-04-07T10:36:08.864Z,9.07
2023-04-07T10:41:36.607Z,5.05
2023-04-07T10:52:28.533Z,7.20
2023-04-07T10:57:33.803Z,7.63
2023-04-07T11:02:37.040Z,4.93
2023-04-07T11:07:48.751Z,3.83
2023-04-07T11:13:06.217Z,4.85
2023-04-07T11:18:18.496Z,4.53
2023-04-07T11:23:25.425Z,4.90
2023-04-07T11:28:29.984Z,4.20
2023-04-07T11:33:34.926Z,4.95
2023-04-07T11:38:39.368Z,5.68
2023-04-07T11:43:43.983Z,6.63
2023-04-07T11:48:47.902Z,15.75
2023-04-07T11:53:56.937Z,7.65
2023-04-07T11:59:02.553Z,12.13
2023-04-07T12:04:06.155Z,17.88
2023-04-07T12:09:10.332Z,12.02
2023-04-07T12:14:14.493Z,9.73
2023-04-07T12:19:18.299Z,15.25
2023-04-07T12:24:21.284Z,6.65
2023-04-07T12:29:25.543Z,11.25
2023-04-07T12:34:28.904Z,7.00
2023-04-07T12:39:31.741Z,9.23
2023-04-07T12:44:36.891Z,10.68
2023-04-07T12:49:39.615Z,6.82
2023-04-07T12:54:43.037Z,13.07
2023-04-07T12:59:47.937Z,7.55
2023-04-07T13:04:50.743Z,9.50
2023-04-07T13:09:54.956Z,8.15
2023-04-07T13:15:00.491Z,7.63
2023-04-07T13:20:04.694Z,14.75
2023-04-07T13:25:10.019Z,21.85
2023-04-07T13:30:16.219Z,8.77
2023-04-07T13:35:20.390Z,9.38
2023-04-07T13:40:23.960Z,7.82
2023-04-07T13:45:28.380Z,8.95
2023-04-07T13:50:31.739Z,4.50
2023-04-07T13:55:34.542Z,4.32
2023-04-07T14:00:38.639Z,4.85
2023-04-07T14:05:41.355Z,9.35
2023-04-07T14:10:44.050Z,11.50
2023-04-07T14:15:49.604Z,7.00
2023-04-07T14:20:52.423Z,5.65
2023-04-07T14:25:55.176Z,7.35
2023-04-07T14:30:59.260Z,6.25
2023-04-07T14:36:02.516Z,8.98
2023-04-07T14:41:10.101Z,10.93
2023-04-07T14:46:15.384Z,3.50
2023-04-07T14:51:18.247Z,6.22
2023-04-07T14:56:22.795Z,5.53
2023-04-07T15:01:27.232Z,6.40
2023-04-07T15:06:30.384Z,8.65
2023-04-07T15:11:33.723Z,7.97
2023-04-07T15:16:38.029Z,10.73
2023-04-07T15:21:40.942Z,8.68
2023-04-07T15:26:44.112Z,6.70
2023-04-07T15:31:48.692Z,9.20
2023-04-07T15:36:51.595Z,10.82
2023-04-07T15:41:54.491Z,9.95
2023-04-07T15:46:58.676Z,10.05
2023-04-07T15:52:02.085Z,9.63
2023-04-07T15:57:04.882Z,13.95
2023-04-07T16:02:09.194Z,8.93
2023-04-07T16:07:13.433Z,16.00
2023-04-07T16:12:16.553Z,14.27
2023-04-07T16:17:20.996Z,13.15
2023-04-07T16:22:23.715Z,11.52
2023-04-07T16:27:26.699Z,13.55
2023-04-07T16:32:30.844Z,12.02
2023-04-07T16:37:34.618Z,8.20
2023-04-07T16:42:37.619Z,6.90
2023-04-07T16:47:44.420Z,5.35
2023-04-07T16:52:48.024Z,3.17
2023-04-07T16:57:51.048Z,3.47
2023-04-07T17:02:55.370Z,5.90
2023-04-07T17:07:58.187Z,3.33
2023-04-07T17:13:00.906Z,4.50
2023-04-07T17:18:06.168Z,6.20
2023-04-07T17:23:10.268Z,10.35
2023-04-07T17:28:13.260Z,10.20
2023-04-07T17:33:18.009Z,10.23
2023-04-07T17:38:20.826Z,10.73
2023-04-07T17:43:23.620Z,8.73
2023-04-07T17:48:27.828Z,12.10
2023-04-07T17:53:31.233Z,12.23
2023-04-07T17:58:36.796Z,12.68
2023-04-07T18:03:41.061Z,18.73
2023-04-07T18:08:46.157Z,14.65
2023-04-07T18:13:49.109Z,13.98
2023-04-07T18:18:53.536Z,15.70
2023-04-07T18:23:56.307Z,15.15
2023-04-07T18:28:59.172Z,13.25
2023-04-07T18:34:03.362Z,23.13
2023-04-07T18:39:06.206Z,20.85
2023-04-07T18:44:09.000Z,73.95
2023-04-07T18:49:13.777Z,28.08
2023-04-07T18:54:16.503Z,21.17
2023-04-07T18:59:20.273Z,21.63
2023-04-07T19:04:25.331Z,16.88
2023-04-07T19:09:28.351Z,30.92
2023-04-07T19:14:31.242Z,29.83
2023-04-07T19:19:36.260Z,23.73
2023-04-07T19:24:40.261Z,21.52
2023-04-07T19:29:43.191Z,23.33
2023-04-07T19:34:47.310Z,25.38
2023-04-07T19:39:59.691Z,26.75
2023-04-07T19:45:08.154Z,32.20
2023-04-07T19:50:14.265Z,29.27
2023-04-07T19:55:17.253Z,26.00
2023-04-07T20:00:20.366Z,28.27
2023-04-07T20:05:27.396Z,26.83
2023-04-07T20:10:30.357Z,24.13
2023-04-07T20:15:33.070Z,24.63
2023-04-07T20:20:37.680Z,26.40
2023-04-07T20:25:40.697Z,24.45
2023-04-07T20:30:44.437Z,38.10
2023-04-07T20:35:49.427Z,30.75
2023-04-07T20:40:52.977Z,33.85
2023-04-07T20:45:56.770Z,29.63
2023-04-07T20:51:01.402Z,30.85
2023-04-07T20:56:04.744Z,36.67
2023-04-07T21:01:07.785Z,48.95
2023-04-07T21:06:11.982Z,51.30
2023-04-07T21:11:14.786Z,40.55
2023-04-07T21:16:17.717Z,29.80
2023-04-07T21:21:22.122Z,42.08
2023-04-07T21:26:24.907Z,33.92
2023-04-07T21:31:27.862Z,36.42
2023-04-07T21:36:32.800Z,35.85
2023-04-07T21:41:35.702Z,39.63
2023-04-07T21:46:38.852Z,34.15
2023-04-07T21:51:42.923Z,42.70
2023-04-07T21:56:49.161Z,40.38
2023-04-07T22:01:52.544Z,38.43
2023-04-07T22:06:58.094Z,34.38
2023-04-07T22:12:01.263Z,40.40
2023-04-07T22:17:04.323Z,41.60
2023-04-07T22:22:08.509Z,40.28
2023-04-07T22:27:11.258Z,38.47
2023-04-07T22:32:14.301Z,38.97
2023-04-07T22:37:19.302Z,42.53
2023-04-07T22:42:22.080Z,48.97
2023-04-07T22:47:24.908Z,32.78
2023-04-07T22:52:29.196Z,33.90
2023-04-07T22:57:31.993Z,37.35
2023-04-07T23:02:34.918Z,37.92
2023-04-07T23:07:39.396Z,35.40
2023-04-07T23:12:42.507Z,36.05
2023-04-07T23:17:45.317Z,35.38
2023-04-07T23:22:49.541Z,39.25
2023-04-07T23:27:52.327Z,34.42
2023-04-07T23:32:55.417Z,38.13
2023-04-07T23:37:59.523Z,34.00
2023-04-07T23:43:02.368Z,43.58
2023-04-07T23:48:05.078Z,36.88
2023-04-07T23:53:09.255Z,37.35
2023-04-07T23:58:12.194Z,34.60
